createdAt,value
2023-04-15T19:31:00.422Z,12.07
2023-04-15T19:33:31.132Z,14.45
2023-04-15T19:35:59.256Z,10.20
2023-04-15T19:38:27.193Z,10.35
2023-04-15T19:40:55.200Z,11.30
2023-04-15T19:43:23.104Z,12.48
2023-04-15T19:45:52.900Z,13.15
2023-04-15T19:48:23.703Z,13.68
2023-04-15T19:50:51.668Z,22.10
2023-04-15T19:53:19.613Z,27.30
2023-04-15T19:55:48.407Z,19.85
2023-04-15T19:58:16.570Z,12.55
2023-04-15T20:00:44.489Z,11.68
2023-04-15T20:03:12.696Z,10.07
2023-04-15T20:05:42.014Z,12.68
2023-04-15T20:08:10.287Z,9.82
2023-04-15T20:10:38.485Z,7.50
2023-04-15T20:13:06.563Z,7.25
2023-04-15T20:15:34.578Z,8.18
2023-04-15T20:18:02.614Z,15.48
2023-04-15T20:20:30.553Z,8.95
2023-04-15T20:22:59.835Z,7.80
2023-04-15T20:25:27.869Z,6.43
2023-04-15T20:27:56.765Z,7.32
2023-04-15T20:30:25.517Z,6.95
2023-04-15T20:32:53.422Z,6.90
2023-04-15T20:35:21.457Z,6.93
2023-04-15T20:37:52.626Z,7.50
2023-04-15T20:40:22.883Z,5.97
2023-04-15T20:42:50.794Z,6.95
2023-04-15T20:45:18.907Z,7.05
2023-04-15T20:47:46.839Z,6.90
2023-04-15T20:50:14.962Z,6.57
2023-04-15T20:52:42.922Z,6.80
2023-04-15T20:55:11.177Z,6.75
2023-04-15T20:57:40.682Z,5.93
2023-04-15T21:00:10.932Z,5.72
2023-04-15T21:02:39.066Z,6.13
2023-04-15T21:05:07.870Z,5.65
2023-04-15T21:07:35.797Z,6.03
2023-04-15T21:10:03.769Z,6.35
2023-04-15T21:12:31.981Z,5.68
2023-04-15T21:15:01.672Z,6.03
2023-04-15T21:17:29.698Z,6.38
2023-04-15T21:19:57.678Z,7.35
2023-04-15T21:22:26.250Z,6.70
2023-04-15T21:24:54.124Z,8.10
2023-04-15T21:27:22.010Z,6.82
2023-04-15T21:29:49.970Z,7.10
2023-04-15T21:32:19.385Z,7.43
2023-04-15T21:34:47.412Z,7.93
2023-04-15T21:37:15.313Z,7.40
2023-04-15T21:39:43.252Z,8.18
2023-04-15T21:42:11.204Z,6.95
2023-04-15T21:44:39.203Z,6.68
2023-04-15T21:47:07.190Z,7.80
2023-04-15T21:49:36.644Z,8.30
2023-04-15T21:52:06.245Z,8.02
2023-04-15T21:54:34.281Z,8.82
2023-04-15T21:57:02.231Z,10.48
2023-04-15T21:59:30.156Z,7.63
2023-04-15T22:01:58.287Z,8.13
2023-04-15T22:04:26.533Z,8.65
2023-04-15T22:07:01.466Z,8.90
2023-04-15T22:09:29.375Z,8.18
2023-04-15T22:11:59.270Z,8.52
2023-04-15T22:14:28.286Z,9.07
2023-04-15T22:16:56.670Z,8.93
2023-04-15T22:19:25.864Z,8.85
2023-04-15T22:21:55.222Z,9.38
2023-04-15T22:24:38.914Z,9.85
2023-04-15T22:27:08.324Z,8.02
2023-04-15T22:29:36.340Z,9.95
2023-04-15T22:32:04.298Z,9.50
2023-04-15T22:34:32.226Z,9.65
2023-04-15T22:37:01.586Z,9.77
2023-04-15T22:39:29.534Z,10.23
2023-04-15T22:41:57.754Z,9.05
2023-04-15T22:44:25.750Z,9.88
2023-04-15T22:46:53.720Z,10.15
2023-04-15T22:49:21.571Z,10.63
2023-04-15T22:51:49.512Z,10.93
2023-04-15T22:54:18.743Z,9.63
2023-04-15T22:56:46.630Z,9.00
2023-04-15T22:59:14.494Z,8.80
2023-04-15T23:01:42.462Z,9.95
2023-04-15T23:04:10.959Z,10.02
2023-04-15T23:06:52.222Z,8.55
2023-04-15T23:09:22.410Z,10.25
2023-04-15T23:11:50.533Z,10.13
2023-04-15T23:14:18.420Z,11.07
2023-04-15T23:16:46.394Z,9.05
2023-04-15T23:19:14.294Z,10.50
2023-04-15T23:21:42.315Z,10.32
2023-04-15T23:24:10.416Z,11.50
2023-04-15T23:26:39.749Z,9.85
2023-04-15T23:29:10.957Z,8.75
2023-04-15T23:31:39.090Z,9.20
2023-04-15T23:34:07.178Z,10.02
2023-04-15T23:36:35.136Z,10.93
2023-04-15T23:39:03.062Z,10.18
2023-04-15T23:41:31.036Z,10.63
2023-04-15T23:44:00.323Z,10.10
2023-04-15T23:46:28.262Z,10.40
2023-04-15T23:48:56.237Z,9.88
2023-04-15T23:51:24.141Z,10.63
2023-04-15T23:53:53.008Z,10.25
2023-04-15T23:56:21.307Z,9.18
2023-04-15T23:58:49.230Z,8.77
